Time;durP1;ratioP1;P1;durP2;ratioP2;P2;SDS_P1;SDS_P2;PMS_P1;PMS_P2;Temp;Humidity;BMP_temperature;BMP_pressure;BME280_temperature;BME280_humidity;BME280_pressure;Samples;Min_cycle;Max_cycle;Signal;HPM_P1;HPM_P2
2021/04/05 00:01:04;;;;;;;33.93;22.13;;;4.90;9.30;;;;;;5017163;28;20463;-43
2021/04/05 00:03:31;;;;;;;29.67;21.20;;;4.90;9.60;;;;;;5005466;28;20484;-47
2021/04/05 00:06:04;;;;;;;35.13;23.23;;;4.90;13.20;;;;;;5015546;28;20496;-42
2021/04/05 00:08:31;;;;;;;41.63;23.97;;;4.90;28.50;;;;;;5020223;28;20455;-43
2021/04/05 00:10:58;;;;;;;40.13;23.30;;;4.90;28.40;;;;;;5019940;28;20929;-46
2021/04/05 00:13:27;;;;;;;29.20;23.03;;;4.90;33.10;;;;;;5019915;28;20468;-43
2021/04/05 00:15:54;;;;;;;34.57;22.20;;;4.90;31.50;;;;;;5019992;28;20897;-44
2021/04/05 00:18:23;;;;;;;40.30;22.60;;;5.00;39.20;;;;;;5019732;28;20479;-44
2021/04/05 00:20:52;;;;;;;38.33;24.10;;;4.90;44.10;;;;;;5019469;28;20897;-43
2021/04/05 00:23:19;;;;;;;43.53;26.60;;;4.90;50.60;;;;;;5000764;28;20464;-44
2021/04/05 00:25:46;;;;;;;34.87;24.57;;;4.90;53.30;;;;;;5012324;28;20521;-45
2021/04/05 00:28:12;;;;;;;34.87;22.50;;;5.00;50.40;;;;;;5019888;28;20467;-45
2021/04/05 00:30:41;;;;;;;38.20;22.60;;;4.90;53.70;;;;;;5019417;28;20512;-46
2021/04/05 00:33:08;;;;;;;38.07;24.00;;;4.90;52.30;;;;;;5018524;28;20600;-49
2021/04/05 00:35:38;;;;;;;35.00;22.27;;;4.90;53.50;;;;;;5018801;28;20464;-47
2021/04/05 00:38:06;;;;;;;31.17;22.67;;;4.90;57.50;;;;;;5018196;28;20503;-44
2021/04/05 00:40:36;;;;;;;37.70;22.27;;;4.90;78.30;;;;;;5019492;28;20464;-45
2021/04/05 00:43:04;;;;;;;43.13;24.70;;;4.90;82.30;;;;;;5019202;28;20468;-46
2021/04/05 00:45:33;;;;;;;33.10;22.80;;;4.90;95.30;;;;;;4999920;28;20490;-43
2021/04/05 00:47:59;;;;;;;34.43;20.63;;;4.90;92.00;;;;;;5007165;28;20460;-49
2021/04/05 00:50:34;;;;;;;31.63;21.90;;;4.80;94.70;;;;;;5019195;28;20947;-47
2021/04/05 00:53:04;;;;;;;33.30;21.83;;;4.90;99.90;;;;;;5019184;28;20962;-43
2021/04/05 00:55:35;;;;;;;31.80;21.40;;;4.90;99.90;;;;;;5019448;28;20956;-45
2021/04/05 00:58:04;;;;;;;32.10;21.30;;;4.80;99.90;;;;;;5018227;28;20468;-46
2021/04/05 01:00:36;;;;;;;33.33;22.13;;;4.90;99.90;;;;;;5019275;28;20753;-43
2021/04/05 01:03:04;;;;;;;28.83;19.97;;;4.90;99.90;;;;;;5016805;28;20984;-49
2021/04/05 01:05:30;;;;;;;32.67;20.40;;;4.90;99.90;;;;;;5012182;28;20507;-46
2021/04/05 01:07:57;;;;;;;37.67;21.80;;;4.90;99.90;;;;;;5007665;28;20504;-48
2021/04/05 01:10:25;;;;;;;31.70;21.83;;;4.90;99.90;;;;;;5008630;28;20534;-49
2021/04/05 01:12:54;;;;;;;36.67;21.90;;;4.90;99.90;;;;;;5014355;28;20468;-48
2021/04/05 01:15:21;;;;;;;33.37;20.37;;;4.90;99.90;;;;;;5018559;28;20442;-44
2021/04/05 01:17:48;;;;;;;32.93;22.40;;;4.80;99.90;;;;;;5016547;28;20817;-45
2021/04/05 01:20:16;;;;;;;40.23;22.10;;;4.90;99.90;;;;;;5018805;28;20460;-46
2021/04/05 01:22:44;;;;;;;31.97;21.60;;;4.90;99.90;;;;;;5018718;28;20464;-47
2021/04/05 01:25:14;;;;;;;31.20;21.20;;;4.80;99.90;;;;;;5008514;28;20473;-46
2021/04/05 01:27:44;;;;;;;38.10;20.40;;;4.90;99.90;;;;;;4999302;28;20465;-48
2021/04/05 01:30:27;;;;;;;36.90;23.10;;;4.80;99.90;;;;;;5015949;28;20509;-44
2021/04/05 01:33:01;;;;;;;37.07;22.53;;;4.90;99.90;;;;;;5017725;28;20578;-46
2021/04/05 01:35:28;;;;;;;39.13;22.10;;;4.80;99.90;;;;;;5018580;28;20522;-46
2021/04/05 01:37:55;;;;;;;34.47;20.90;;;4.90;99.90;;;;;;5017715;28;20881;-48
2021/04/05 01:40:22;;;;;;;37.93;22.77;;;4.90;99.90;;;;;;5018663;28;20873;-44
2021/04/05 01:42:48;;;;;;;33.97;20.67;;;4.90;99.90;;;;;;5010827;28;20464;-43
2021/04/05 01:45:17;;;;;;;34.30;21.00;;;4.90;99.90;;;;;;5018391;28;20741;-44
2021/04/05 01:47:44;;;;;;;32.27;21.30;;;4.90;99.90;;;;;;5017930;28;20579;-44
2021/04/05 01:50:12;;;;;;;38.17;22.07;;;4.90;99.90;;;;;;5017842;28;20488;-47
2021/04/05 01:52:40;;;;;;;36.27;21.90;;;4.90;99.90;;;;;;5017264;28;20471;-46
2021/04/05 01:55:12;;;;;;;31.77;21.93;;;4.90;99.90;;;;;;5018066;28;20892;-47
2021/04/05 01:57:39;;;;;;;35.30;24.00;;;4.90;99.90;;;;;;5017478;28;20841;-47
2021/04/05 02:00:11;;;;;;;37.00;23.70;;;4.90;99.90;;;;;;5017393;28;20468;-46
2021/04/05 02:02:39;;;;;;;30.27;21.77;;;4.90;99.90;;;;;;5012919;28;20485;-46
2021/04/05 02:05:08;;;;;;;36.23;22.50;;;4.90;99.90;;;;;;5008533;28;20464;-43
2021/04/05 02:07:36;;;;;;;33.47;22.73;;;4.90;99.90;;;;;;5003267;28;20460;-48
2021/04/05 02:10:08;;;;;;;39.80;22.60;;;4.90;99.90;;;;;;5013300;28;20452;-43
2021/04/05 02:12:36;;;;;;;42.50;23.07;;;4.90;99.90;;;;;;5014484;28;20464;-43
2021/04/05 02:15:04;;;;;;;37.73;25.80;;;4.90;99.90;;;;;;5017032;28;20508;-52
2021/04/05 02:17:30;;;;;;;36.20;23.80;;;4.90;99.90;;;;;;5017557;28;20468;-45
2021/04/05 02:19:57;;;;;;;42.23;25.50;;;4.90;99.90;;;;;;5015857;28;20459;-44
2021/04/05 02:22:24;;;;;;;37.30;24.80;;;4.90;99.90;;;;;;5005678;28;20769;-44
2021/04/05 02:24:50;;;;;;;34.03;22.53;;;4.90;99.90;;;;;;5014572;28;20471;-45
2021/04/05 02:27:18;;;;;;;44.83;24.63;;;4.90;99.90;;;;;;5004967;28;20472;-44
2021/04/05 02:29:45;;;;;;;38.33;23.73;;;4.90;99.90;;;;;;5015838;28;20527;-44
2021/04/05 02:32:12;;;;;;;39.50;24.93;;;4.80;99.90;;;;;;5017654;28;20948;-45
2021/04/05 02:34:39;;;;;;;40.83;25.60;;;4.90;99.90;;;;;;5016782;28;20464;-44
2021/04/05 02:37:05;;;;;;;42.33;25.30;;;4.90;99.90;;;;;;5016207;28;20477;-43
2021/04/05 02:39:32;;;;;;;36.53;24.67;;;4.90;99.90;;;;;;5012200;28;20901;-49
2021/04/05 02:41:58;;;;;;;41.97;25.97;;;4.90;99.90;;;;;;5015642;28;20464;-43
2021/04/05 02:44:28;;;;;;;40.40;23.27;;;4.90;99.90;;;;;;5017600;28;20468;-43
2021/04/05 02:46:56;;;;;;;37.87;22.97;;;4.90;99.90;;;;;;5016858;28;20468;-42
2021/04/05 02:49:23;;;;;;;44.73;26.20;;;4.90;99.90;;;;;;5016335;28;20472;-43
2021/04/05 02:51:50;;;;;;;33.20;23.47;;;4.90;99.90;;;;;;5015982;28;20972;-43
2021/04/05 02:54:20;;;;;;;42.47;25.13;;;4.90;99.90;;;;;;5016185;28;20475;-45
2021/04/05 02:56:47;;;;;;;40.27;24.50;;;4.90;99.90;;;;;;5021082;28;20570;-45
2021/04/05 02:59:16;;;;;;;37.10;23.83;;;5.00;99.90;;;;;;5019639;28;20467;-44
2021/04/05 03:01:44;;;;;;;40.90;25.07;;;5.00;99.90;;;;;;5021391;28;20550;-44
2021/04/05 03:04:11;;;;;;;40.63;24.47;;;5.00;99.90;;;;;;5010457;28;20472;-44
2021/04/05 03:06:38;;;;;;;42.27;24.30;;;5.00;99.90;;;;;;5007378;28;20485;-43
2021/04/05 03:09:06;;;;;;;42.10;25.60;;;5.00;99.90;;;;;;5009994;28;20468;-43
2021/04/05 03:11:35;;;;;;;45.90;28.40;;;5.00;99.90;;;;;;5018178;28;21011;-45
2021/04/05 03:14:03;;;;;;;33.73;23.60;;;5.00;99.90;;;;;;5016608;28;20475;-43
2021/04/05 03:16:31;;;;;;;40.80;25.67;;;4.90;99.90;;;;;;5019780;28;20490;-43
2021/04/05 03:19:01;;;;;;;43.93;24.60;;;5.00;99.90;;;;;;5020714;28;20468;-43
2021/04/05 03:21:28;;;;;;;37.37;26.20;;;5.00;99.90;;;;;;5018399;28;20475;-47
2021/04/05 03:23:59;;;;;;;41.10;25.50;;;4.90;99.90;;;;;;5019728;28;20468;-44
2021/04/05 03:26:25;;;;;;;42.10;26.47;;;4.90;99.90;;;;;;5020691;28;20529;-47
2021/04/05 03:28:52;;;;;;;40.27;25.33;;;5.00;99.90;;;;;;5019700;28;20472;-50
2021/04/05 03:31:20;;;;;;;38.07;24.33;;;5.00;99.90;;;;;;5020041;28;20763;-44
2021/04/05 03:33:52;;;;;;;39.17;24.73;;;5.10;99.90;;;;;;5019514;28;20917;-52
2021/04/05 03:36:23;;;;;;;34.40;23.60;;;5.10;99.90;;;;;;5020181;28;20884;-43
2021/04/05 03:38:49;;;;;;;41.93;24.10;;;5.10;99.90;;;;;;5013357;28;20472;-45
2021/04/05 03:41:27;;;;;;;41.30;24.53;;;5.20;99.90;;;;;;5019318;28;20464;-44
2021/04/05 03:44:00;;;;;;;34.80;23.67;;;5.30;99.90;;;;;;5019841;28;20467;-43
2021/04/05 03:46:33;;;;;;;42.30;23.33;;;5.30;99.90;;;;;;5016416;28;20490;-44
2021/04/05 03:49:09;;;;;;;37.70;22.20;;;5.30;99.90;;;;;;5015581;28;20463;-47
2021/04/05 03:51:44;;;;;;;32.10;22.37;;;5.30;99.90;;;;;;5019383;28;20492;-49
2021/04/05 03:54:13;;;;;;;32.00;21.20;;;5.30;99.90;;;;;;5019816;28;20474;-43
2021/04/05 03:56:43;;;;;;;39.37;23.87;;;5.40;99.90;;;;;;5019937;28;20475;-43
2021/04/05 03:59:12;;;;;;;41.57;23.47;;;5.30;99.90;;;;;;5018965;28;20905;-45
2021/04/05 04:01:46;;;;;;;30.30;22.20;;;5.40;99.90;;;;;;5020424;28;20468;-43
2021/04/05 04:04:16;;;;;;;37.27;22.00;;;5.30;99.90;;;;;;5005196;28;20497;-45
2021/04/05 04:06:54;;;;;;;34.93;22.00;;;5.30;99.90;;;;;;5006399;28;20497;-43
2021/04/05 04:09:23;;;;;;;38.27;22.70;;;5.30;99.90;;;;;;5015793;28;20990;-44
2021/04/05 04:11:52;;;;;;;34.10;20.77;;;5.30;99.90;;;;;;5018586;28;20812;-48
2021/04/05 04:14:19;;;;;;;33.60;21.20;;;5.30;99.90;;;;;;5006853;28;20467;-46
2021/04/05 04:16:48;;;;;;;38.70;22.90;;;5.30;99.90;;;;;;5018078;28;20468;-44
2021/04/05 04:19:16;;;;;;;37.33;21.57;;;5.30;99.90;;;;;;5020196;28;20482;-47
2021/04/05 04:21:47;;;;;;;32.10;20.87;;;5.30;99.90;;;;;;5017538;28;20467;-47
2021/04/05 04:24:15;;;;;;;37.20;21.80;;;5.30;99.90;;;;;;5017937;28;20464;-45
2021/04/05 04:26:43;;;;;;;35.17;22.40;;;5.30;99.90;;;;;;5018265;28;20471;-42
2021/04/05 04:29:14;;;;;;;31.47;19.53;;;5.30;99.90;;;;;;5019351;28;20468;-45
2021/04/05 04:31:41;;;;;;;38.40;20.57;;;5.40;99.90;;;;;;5018740;28;20492;-46
2021/04/05 04:34:07;;;;;;;34.60;22.47;;;5.40;99.90;;;;;;5018479;28;20835;-45
2021/04/05 04:36:34;;;;;;;30.00;20.30;;;5.40;99.90;;;;;;5019746;28;20479;-44
2021/04/05 04:39:02;;;;;;;31.30;20.80;;;5.40;99.90;;;;;;5016095;28;20974;-47
2021/04/05 04:41:30;;;;;;;35.70;19.53;;;5.40;99.90;;;;;;5019671;28;20475;-51
2021/04/05 04:43:57;;;;;;;32.03;22.50;;;5.40;99.90;;;;;;5018789;28;20472;-43
2021/04/05 04:46:24;;;;;;;34.80;21.10;;;5.30;99.90;;;;;;5018415;28;20468;-43
2021/04/05 04:48:56;;;;;;;30.37;21.23;;;5.40;99.90;;;;;;5018598;28;20526;-46
2021/04/05 04:51:22;;;;;;;38.87;19.90;;;5.40;99.90;;;;;;5015500;28;20816;-45
2021/04/05 04:53:49;;;;;;;37.00;21.43;;;5.40;99.90;;;;;;5018937;28;20526;-46
2021/04/05 04:56:20;;;;;;;34.43;21.50;;;5.40;99.90;;;;;;5017423;28;20734;-43
2021/04/05 04:58:47;;;;;;;35.50;21.20;;;5.40;99.90;;;;;;5019563;28;20468;-46
2021/04/05 05:01:14;;;;;;;30.80;21.20;;;5.30;1.00;;;;;;5016683;28;20470;-47
2021/04/05 05:03:45;;;;;;;33.47;21.20;;;5.30;1.00;;;;;;5007052;28;20503;-44
2021/04/05 05:06:14;;;;;;;40.97;21.63;;;5.30;1.00;;;;;;5012100;28;20495;-43
2021/04/05 05:08:43;;;;;;;34.40;21.63;;;5.40;1.00;;;;;;5013580;28;20468;-43
2021/04/05 05:11:09;;;;;;;38.70;21.03;;;5.40;1.00;;;;;;5017581;28;20466;-43
2021/04/05 05:13:37;;;;;;;34.63;20.10;;;5.40;1.00;;;;;;5017157;28;20476;-50
2021/04/05 05:16:06;;;;;;;34.23;20.73;;;5.40;1.00;;;;;;5017993;28;20468;-48
2021/04/05 05:18:34;;;;;;;37.90;20.67;;;5.50;1.00;;;;;;5017288;28;20480;-46
2021/04/05 05:21:04;;;;;;;32.27;19.13;;;5.50;1.00;;;;;;5015685;28;20464;-47
2021/04/05 05:23:34;;;;;;;33.73;20.47;;;5.40;1.00;;;;;;5005278;28;20514;-45
2021/04/05 05:26:02;;;;;;;32.97;19.57;;;5.40;1.00;;;;;;5017298;28;20472;-43
2021/04/05 05:28:30;;;;;;;31.60;20.33;;;5.40;1.00;;;;;;5008183;28;20527;-44
2021/04/05 05:31:01;;;;;;;36.40;20.60;;;5.40;1.00;;;;;;5016797;28;20492;-43
2021/04/05 05:33:27;;;;;;;31.90;20.67;;;5.40;1.00;;;;;;5017979;28;20468;-43
2021/04/05 05:35:54;;;;;;;33.00;20.57;;;5.40;1.00;;;;;;5017062;28;20471;-43
2021/04/05 05:38:22;;;;;;;36.97;21.97;;;5.30;11.50;;;;;;5015932;28;20542;-46
2021/04/05 05:40:49;;;;;;;32.77;21.90;;;5.30;95.00;;;;;;5017578;28;20467;-43
2021/04/05 05:43:35;;;;;;;32.40;21.43;;;5.40;92.20;;;;;;5009733;28;20631;-51
2021/04/05 05:46:13;;;;;;;41.07;20.90;;;5.40;99.90;;;;;;5014101;28;20961;-45
2021/04/05 05:48:59;;;;;;;32.77;21.30;;;5.30;99.90;;;;;;5013983;28;20475;-44
2021/04/05 05:51:43;;;;;;;38.33;22.83;;;5.40;99.90;;;;;;5006266;28;21047;-48
2021/04/05 05:54:24;;;;;;;33.43;21.03;;;5.40;99.90;;;;;;5008750;28;20468;-44
2021/04/05 05:56:55;;;;;;;36.80;22.50;;;5.30;99.90;;;;;;5008886;28;20464;-43
2021/04/05 05:59:29;;;;;;;41.17;23.93;;;5.30;99.90;;;;;;5007838;28;20530;-44
2021/04/05 06:02:12;;;;;;;41.93;24.30;;;5.30;1.00;;;;;;5006108;28;20462;-47
2021/04/05 06:04:49;;;;;;;39.30;22.70;;;5.30;1.00;;;;;;5004936;28;20809;-43
2021/04/05 06:07:23;;;;;;;40.50;24.50;;;5.30;99.90;;;;;;5010535;28;20522;-44
2021/04/05 06:10:07;;;;;;;43.70;25.50;;;5.20;99.90;;;;;;5011741;28;20563;-47
2021/04/05 06:12:44;;;;;;;42.17;24.13;;;5.30;99.90;;;;;;5009015;28;20550;-44
2021/04/05 06:15:19;;;;;;;51.33;25.03;;;5.20;1.00;;;;;;5009906;28;20460;-44
2021/04/05 06:18:04;;;;;;;38.77;24.60;;;5.20;85.90;;;;;;5009215;28;20471;-44
2021/04/05 06:20:37;;;;;;;34.33;25.03;;;5.20;99.90;;;;;;5008046;28;20459;-45
2021/04/05 06:23:29;;;;;;;37.63;23.13;;;5.20;99.90;;;;;;5009420;28;20503;-45
2021/04/05 06:26:04;;;;;;;41.70;26.30;;;5.20;99.90;;;;;;5011808;28;20583;-43
2021/04/05 06:28:52;;;;;;;42.27;25.87;;;5.20;99.90;;;;;;5002896;28;20460;-47
2021/04/05 06:31:33;;;;;;;49.03;26.57;;;5.30;99.90;;;;;;5008509;28;20499;-48
2021/04/05 06:34:11;;;;;;;50.87;27.10;;;5.30;99.90;;;;;;5009800;28;20534;-46
2021/04/05 06:36:44;;;;;;;50.10;26.67;;;5.20;99.90;;;;;;5012669;28;20464;-49
2021/04/05 06:39:19;;;;;;;45.87;26.93;;;5.20;99.90;;;;;;5017032;28;20463;-48
2021/04/05 06:42:11;;;;;;;40.53;29.20;;;5.20;99.90;;;;;;5015980;28;20959;-49
2021/04/05 06:44:59;;;;;;;41.70;27.10;;;5.20;99.90;;;;;;5007024;28;20563;-49
2021/04/05 06:47:54;;;;;;;42.97;27.63;;;5.10;99.90;;;;;;5009237;28;20475;-46
2021/04/05 06:50:30;;;;;;;44.50;28.00;;;5.20;99.90;;;;;;5014135;28;20460;-52
2021/04/05 06:53:41;;;;;;;46.67;27.90;;;5.10;99.90;;;;;;5015246;28;20456;-49
2021/04/05 06:56:15;;;;;;;52.00;30.90;;;5.10;99.90;;;;;;4970714;28;20464;-52
2021/04/05 06:58:58;;;;;;;46.70;27.60;;;5.20;99.90;;;;;;5014490;28;20460;-55
2021/04/05 07:01:36;;;;;;;42.30;26.10;;;5.20;99.90;;;;;;5016372;28;20756;-53
2021/04/05 07:04:30;;;;;;;46.87;29.63;;;5.20;99.90;;;;;;5005829;28;20818;-50
2021/04/05 07:07:08;;;;;;;53.33;29.07;;;5.20;99.90;;;;;;5004613;28;20495;-47
2021/04/05 07:09:43;;;;;;;55.57;29.90;;;5.20;99.90;;;;;;5015257;28;20486;-52
2021/04/05 07:12:27;;;;;;;52.23;31.13;;;5.20;99.90;;;;;;5017362;28;20537;-51
2021/04/05 07:15:09;;;;;;;45.17;30.67;;;5.20;99.90;;;;;;5014807;28;20474;-55
2021/04/05 07:17:45;;;;;;;49.93;31.43;;;5.30;99.90;;;;;;5016188;28;20468;-52
2021/04/05 07:20:18;;;;;;;50.57;30.57;;;5.30;99.90;;;;;;5017286;28;20463;-51
2021/04/05 07:22:59;;;;;;;52.67;31.07;;;5.30;99.90;;;;;;5017031;28;20754;-56
2021/04/05 07:25:35;;;;;;;50.77;31.80;;;5.40;99.90;;;;;;5017740;28;20464;-51
2021/04/05 07:28:08;;;;;;;47.50;29.87;;;5.40;99.90;;;;;;5015824;28;20474;-55
2021/04/05 07:30:41;;;;;;;50.93;29.87;;;5.40;99.90;;;;;;5016980;28;20563;-57
2021/04/05 07:33:19;;;;;;;47.30;28.73;;;5.40;99.90;;;;;;5016479;28;20551;-54
2021/04/05 07:35:56;;;;;;;47.63;29.43;;;5.50;99.90;;;;;;5016701;28;20510;-50
2021/04/05 07:38:36;;;;;;;52.60;29.70;;;5.50;99.90;;;;;;5011177;28;20952;-53
2021/04/05 07:41:09;;;;;;;46.33;30.40;;;5.50;99.90;;;;;;5005654;28;20499;-50
2021/04/05 07:43:46;;;;;;;53.93;32.20;;;5.50;99.90;;;;;;5022403;28;20788;-52
2021/04/05 07:46:22;;;;;;;46.60;30.27;;;5.50;99.90;;;;;;5020932;28;20776;-51
2021/04/05 07:48:58;;;;;;;44.33;29.40;;;5.50;99.90;;;;;;5022455;28;20737;-52
2021/04/05 07:51:37;;;;;;;43.47;30.27;;;5.50;99.90;;;;;;5020359;28;20484;-53
2021/04/05 07:54:10;;;;;;;45.63;30.97;;;5.50;99.90;;;;;;5019504;28;20513;-53
2021/04/05 07:56:45;;;;;;;51.00;32.27;;;5.50;99.90;;;;;;5020057;28;20468;-51
2021/04/05 07:59:33;;;;;;;44.90;29.50;;;5.50;99.90;;;;;;5019979;28;20459;-50
2021/04/05 08:02:09;;;;;;;48.93;29.10;;;5.50;99.90;;;;;;5000458;28;20895;-49
2021/04/05 08:04:45;;;;;;;49.03;28.93;;;5.50;99.90;;;;;;5007492;28;20511;-51
2021/04/05 08:07:17;;;;;;;45.90;25.93;;;5.50;99.90;;;;;;5011668;28;20491;-57
2021/04/05 08:09:50;;;;;;;42.20;27.40;;;5.50;99.90;;;;;;5019849;28;20460;-50
2021/04/05 08:12:31;;;;;;;32.03;24.90;;;5.50;99.90;;;;;;5020805;28;20491;-54
2021/04/05 08:15:18;;;;;;;17.57;13.60;;;5.30;99.90;;;;;;5011714;28;20535;-55
2021/04/05 08:18:01;;;;;;;11.23;9.13;;;4.90;99.90;;;;;;5008151;28;20468;-53
2021/04/05 08:20:34;;;;;;;13.33;7.70;;;4.80;99.90;;;;;;5022339;28;20468;-48
2021/04/05 08:23:09;;;;;;;10.13;7.40;;;4.80;99.90;;;;;;5019958;28;20463;-53
2021/04/05 08:25:54;;;;;;;11.10;8.70;;;4.70;99.90;;;;;;5002923;28;20471;-51
2021/04/05 08:28:27;;;;;;;11.50;8.50;;;4.70;99.90;;;;;;5019983;28;20468;-50
2021/04/05 08:31:07;;;;;;;11.73;8.40;;;4.70;99.90;;;;;;5021515;28;20500;-48
2021/04/05 08:33:43;;;;;;;9.67;6.63;;;4.80;99.90;;;;;;5021242;28;20464;-54
2021/04/05 08:36:20;;;;;;;10.00;7.43;;;4.70;99.90;;;;;;5021598;28;20522;-53
2021/04/05 08:38:53;;;;;;;7.30;5.50;;;4.70;99.90;;;;;;5022045;28;20924;-57
2021/04/05 08:41:29;;;;;;;4.93;3.80;;;4.70;99.90;;;;;;5020214;28;20468;-57
2021/04/05 08:44:01;;;;;;;4.93;3.40;;;4.40;99.90;;;;;;5021389;28;20468;-54
2021/04/05 08:46:33;;;;;;;3.50;2.83;;;4.40;99.90;;;;;;5020582;28;20530;-55
2021/04/05 08:49:08;;;;;;;2.97;2.67;;;4.50;99.90;;;;;;5020569;28;20475;-56
2021/04/05 08:51:38;;;;;;;3.67;2.73;;;4.50;99.90;;;;;;5019477;28;20522;-53
2021/04/05 08:54:07;;;;;;;3.30;2.60;;;4.40;99.90;;;;;;5019649;28;20468;-57
2021/04/05 08:56:43;;;;;;;2.93;2.23;;;4.40;99.90;;;;;;5020396;28;20495;-55
2021/04/05 08:59:14;;;;;;;4.30;2.57;;;4.40;99.90;;;;;;5020123;28;20916;-51
2021/04/05 09:01:45;;;;;;;3.03;2.53;;;4.40;99.90;;;;;;5020753;28;20468;-54
2021/04/05 09:04:17;;;;;;;4.30;3.47;;;4.50;99.90;;;;;;5010652;28;20482;-49
2021/04/05 09:06:55;;;;;;;26.83;15.80;;;4.50;99.90;;;;;;5017730;28;20491;-50
2021/04/05 09:09:23;;;;;;;53.30;35.30;;;4.50;99.90;;;;;;5011015;28;20468;-49
2021/04/05 09:11:51;;;;;;;13.63;12.23;;;4.40;99.90;;;;;;5021492;28;20503;-56
2021/04/05 09:14:25;;;;;;;4.90;4.50;;;4.50;99.90;;;;;;5019403;28;20468;-58
2021/04/05 09:17:06;;;;;;;6.20;4.10;;;4.50;99.90;;;;;;5019761;28;20467;-58
2021/04/05 09:20:12;;;;;;;5.20;4.10;;;4.60;99.90;;;;;;5019602;28;20503;-49
2021/04/05 09:23:20;;;;;;;4.20;3.73;;;4.60;99.90;;;;;;5017736;28;20468;-59
2021/04/05 09:25:52;;;;;;;3.20;3.00;;;4.40;99.90;;;;;;5015242;28;20472;-58
2021/04/05 09:28:47;;;;;;;3.20;2.50;;;3.60;99.90;;;;;;5012791;28;20519;-52
2021/04/05 09:31:55;;;;;;;5.50;3.20;;;3.20;99.90;;;;;;5017662;28;20492;-50
2021/04/05 09:34:53;;;;;;;10.23;5.40;;;3.00;99.90;;;;;;5005704;28;20506;-58
2021/04/05 09:37:43;;;;;;;10.30;3.30;;;3.00;99.90;;;;;;5018195;28;20443;-55
2021/04/05 09:40:27;;;;;;;12.23;3.60;;;3.10;99.90;;;;;;5019209;28;20459;-52
2021/04/05 09:43:25;;;;;;;5.13;2.80;;;3.10;99.90;;;;;;5017403;28;20460;-52
2021/04/05 09:46:06;;;;;;;13.70;3.53;;;3.00;99.90;;;;;;5003549;28;20480;-58
2021/04/05 09:48:49;;;;;;;8.80;4.40;;;3.10;99.90;;;;;;5018203;28;20472;-57
2021/04/05 09:51:49;;;;;;;7.87;3.73;;;3.20;99.90;;;;;;5020356;28;20501;-58
2021/04/05 09:54:25;;;;;;;6.93;3.50;;;3.10;99.90;;;;;;5020118;28;20467;-58
2021/04/05 09:56:56;;;;;;;9.40;3.73;;;2.90;99.90;;;;;;5019227;28;20508;-57
2021/04/05 09:59:34;;;;;;;11.03;3.83;;;3.00;99.90;;;;;;5019495;28;20494;-55
2021/04/05 10:02:01;;;;;;;15.00;4.40;;;3.00;99.90;;;;;;5020500;28;20917;-55
2021/04/05 10:04:30;;;;;;;11.77;5.07;;;3.10;99.90;;;;;;5007150;28;20471;-59
2021/04/05 10:06:58;;;;;;;13.57;5.53;;;3.10;99.90;;;;;;5020037;28;20492;-55
2021/04/05 10:09:29;;;;;;;10.37;5.87;;;3.00;99.90;;;;;;5020034;28;20518;-54
2021/04/05 10:11:57;;;;;;;12.33;5.70;;;3.00;99.90;;;;;;5019248;28;20499;-54
2021/04/05 10:14:25;;;;;;;12.47;4.60;;;2.90;99.90;;;;;;5003905;28;20463;-58
2021/04/05 10:16:55;;;;;;;14.67;4.90;;;2.90;99.90;;;;;;5000694;28;20466;-57
2021/04/05 10:19:31;;;;;;;9.83;5.50;;;2.90;99.90;;;;;;5005951;28;20457;-57
2021/04/05 10:22:01;;;;;;;9.23;5.00;;;2.90;99.90;;;;;;5019580;28;20460;-55
2021/04/05 10:24:30;;;;;;;9.87;5.27;;;3.00;99.90;;;;;;5019810;28;20507;-56
2021/04/05 10:26:59;;;;;;;15.97;4.07;;;3.10;99.90;;;;;;5020073;28;20475;-57
2021/04/05 10:29:29;;;;;;;9.50;3.40;;;3.20;99.90;;;;;;5019395;28;20522;-52
2021/04/05 10:32:02;;;;;;;9.50;3.73;;;3.40;99.90;;;;;;5019947;28;20492;-59
2021/04/05 10:34:30;;;;;;;3.63;3.00;;;3.60;99.90;;;;;;5017904;28;20467;-58
2021/04/05 10:37:01;;;;;;;13.30;3.50;;;3.80;99.90;;;;;;5019421;28;20890;-55
2021/04/05 10:39:30;;;;;;;10.50;4.17;;;3.80;1.00;;;;;;5018461;28;20519;-59
2021/04/05 10:42:02;;;;;;;10.93;4.50;;;4.00;1.00;;;;;;5018604;28;20459;-59
2021/04/05 10:44:32;;;;;;;14.00;5.23;;;3.80;1.00;;;;;;5019472;28;20464;-59
2021/04/05 10:47:01;;;;;;;16.03;5.27;;;3.80;1.00;;;;;;5018470;28;20460;-59
2021/04/05 10:49:32;;;;;;;9.97;5.20;;;3.80;1.00;;;;;;5018584;28;20976;-54
2021/04/05 10:52:09;;;;;;;14.03;6.83;;;3.60;99.90;;;;;;5019493;28;20833;-54
2021/04/05 10:54:39;;;;;;;8.73;4.40;;;3.40;1.00;;;;;;5019084;28;20460;-56
2021/04/05 10:57:11;;;;;;;7.47;3.33;;;2.90;1.00;;;;;;5017414;28;20526;-60
2021/04/05 10:59:44;;;;;;;5.07;3.20;;;2.30;1.00;;;;;;5017360;28;20471;-59
2021/04/05 11:02:18;;;;;;;6.90;3.27;;;2.00;51.90;;;;;;5015497;28;20460;-57
2021/04/05 11:04:52;;;;;;;4.93;3.67;;;2.00;99.90;;;;;;5006605;28;20476;-60
2021/04/05 11:07:23;;;;;;;6.93;3.70;;;1.80;99.90;;;;;;5016008;28;20935;-60
2021/04/05 11:09:51;;;;;;;4.50;3.20;;;1.80;99.90;;;;;;5016221;28;20464;-54
2021/04/05 11:12:23;;;;;;;4.50;3.17;;;1.80;99.90;;;;;;5016683;28;20491;-58
2021/04/05 11:14:51;;;;;;;3.40;2.87;;;1.90;99.90;;;;;;5016636;28;20471;-58
2021/04/05 11:17:21;;;;;;;2.77;2.50;;;1.70;99.90;;;;;;5020241;28;20467;-52
2021/04/05 11:19:55;;;;;;;3.00;2.70;;;1.60;99.90;;;;;;5020789;28;20459;-55
2021/04/05 11:22:26;;;;;;;3.33;2.63;;;1.50;99.90;;;;;;5020804;28;20461;-56
2021/04/05 11:24:55;;;;;;;2.43;2.10;;;1.70;99.90;;;;;;5021161;28;20505;-54
2021/04/05 11:27:29;;;;;;;4.50;2.43;;;1.80;99.90;;;;;;5021620;28;20533;-50
2021/04/05 11:29:59;;;;;;;5.33;3.10;;;1.90;99.90;;;;;;5021971;28;20468;-50
2021/04/05 11:32:28;;;;;;;4.23;3.93;;;2.30;99.90;;;;;;5020744;28;20927;-53
2021/04/05 11:34:58;;;;;;;3.73;2.43;;;2.60;11.90;;;;;;5020872;28;20466;-52
2021/04/05 11:37:33;;;;;;;4.93;3.33;;;2.90;1.00;;;;;;5020568;28;20554;-53
2021/04/05 11:40:04;;;;;;;3.93;3.30;;;3.40;99.90;;;;;;5021406;28;20470;-54
2021/04/05 11:42:42;;;;;;;2.93;2.73;;;4.10;99.90;;;;;;5022890;28;20439;-55
2021/04/05 11:45:13;;;;;;;5.30;3.40;;;4.30;1.00;;;;;;5022806;28;20916;-57
2021/04/05 11:47:45;;;;;;;5.60;3.33;;;4.20;99.90;;;;;;5022148;28;20467;-58
2021/04/05 11:50:16;;;;;;;3.50;3.00;;;3.90;99.90;;;;;;5022469;28;20522;-58
2021/04/05 11:52:48;;;;;;;2.97;2.77;;;3.60;99.90;;;;;;5022138;28;20489;-57
2021/04/05 11:55:20;;;;;;;3.67;3.37;;;3.60;8.40;;;;;;5022387;28;20451;-58
2021/04/05 11:57:53;;;;;;;5.00;3.17;;;3.70;42.80;;;;;;5021951;28;20474;-58
2021/04/05 12:00:29;;;;;;;6.67;4.00;;;3.50;99.90;;;;;;5023021;28;20463;-56
2021/04/05 12:03:12;;;;;;;3.50;3.20;;;3.50;1.00;;;;;;5015418;28;20479;-58
2021/04/05 12:05:43;;;;;;;4.23;3.60;;;3.50;95.30;;;;;;5015811;28;20482;-58
2021/04/05 12:08:22;;;;;;;6.23;3.67;;;3.90;80.80;;;;;;5021514;28;20460;-58
2021/04/05 12:10:52;;;;;;;4.03;2.80;;;4.10;1.00;;;;;;5020668;28;20464;-58
2021/04/05 12:13:23;;;;;;;8.50;3.90;;;4.20;1.00;;;;;;5021331;28;20515;-58
2021/04/05 12:15:57;;;;;;;4.10;2.57;;;4.20;1.00;;;;;;5020967;28;20499;-58
2021/04/05 12:18:26;;;;;;;5.77;3.00;;;4.10;10.90;;;;;;5019512;28;20764;-53
2021/04/05 12:21:05;;;;;;;3.27;2.80;;;3.20;99.90;;;;;;5019452;28;20472;-53
2021/04/05 12:23:32;;;;;;;3.07;2.77;;;1.80;1.00;;;;;;5019509;28;20463;-49
2021/04/05 12:25:59;;;;;;;5.53;2.90;;;1.10;1.00;;;;;;5020237;28;20471;-53
2021/04/05 12:28:33;;;;;;;3.13;2.50;;;0.70;1.00;;;;;;5019481;28;20742;-55
2021/04/05 12:31:03;;;;;;;3.70;2.50;;;0.80;1.00;;;;;;5020097;28;20736;-53
2021/04/05 12:33:33;;;;;;;7.10;2.70;;;1.00;1.00;;;;;;5018784;28;20913;-48
2021/04/05 12:36:00;;;;;;;3.73;2.40;;;1.10;84.40;;;;;;5020010;28;20881;-50
2021/04/05 12:38:30;;;;;;;2.63;2.20;;;1.50;1.00;;;;;;5018846;28;20467;-60
2021/04/05 12:40:57;;;;;;;2.97;2.10;;;1.80;1.00;;;;;;5020121;28;20511;-59
2021/04/05 12:43:28;;;;;;;3.30;2.20;;;2.60;99.90;;;;;;5019372;28;20550;-60
2021/04/05 12:45:56;;;;;;;9.23;2.30;;;3.30;1.00;;;;;;5019764;28;20869;-58
2021/04/05 12:48:25;;;;;;;4.77;2.50;;;3.40;99.90;;;;;;5021306;28;20475;-52
2021/04/05 12:50:56;;;;;;;7.10;3.40;;;3.70;99.90;;;;;;5018636;28;20487;-57
2021/04/05 12:53:27;;;;;;;9.73;2.40;;;3.70;99.90;;;;;;5020057;28;20955;-56
2021/04/05 12:55:56;;;;;;;4.80;2.37;;;3.80;94.50;;;;;;5019555;28;20467;-59
2021/04/05 12:58:27;;;;;;;8.63;2.90;;;3.80;59.10;;;;;;5020663;28;20464;-58
2021/04/05 13:00:57;;;;;;;4.17;2.50;;;3.70;99.90;;;;;;5020169;28;20538;-58
2021/04/05 13:03:29;;;;;;;4.70;3.23;;;3.50;99.90;;;;;;5012055;28;20456;-60
2021/04/05 13:06:03;;;;;;;9.90;2.50;;;3.00;99.90;;;;;;5015400;28;20819;-58
2021/04/05 13:08:34;;;;;;;3.97;2.27;;;2.80;48.00;;;;;;5019683;28;20467;-54
2021/04/05 13:11:06;;;;;;;5.97;2.50;;;3.70;1.00;;;;;;5016615;28;20476;-52
2021/04/05 13:13:38;;;;;;;3.33;2.00;;;4.30;1.00;;;;;;5011113;28;20546;-58